Time;durP1;ratioP1;P1;durP2;ratioP2;P2;SDS_P1;SDS_P2;PMS_P1;PMS_P2;Temp;Humidity;BMP_temperature;BMP_pressure;BME280_temperature;BME280_humidity;BME280_pressure;Samples;Min_cycle;Max_cycle;Signal;HPM_P1;HPM_P2
2023/06/07 00:02:11;;;;;;;3.75;2.50;;;;;;;20.64;39.88;100289.28;10283350;28;20049;-68
2023/06/07 00:07:19;;;;;;;2.63;1.85;;;;;;;20.63;40.76;100291.16;10280367;28;20053;-69
2023/06/07 00:12:20;;;;;;;5.03;2.50;;;;;;;20.61;40.14;100292.38;10278941;28;20042;-69
2023/06/07 00:17:24;;;;;;;4.35;2.78;;;;;;;20.59;40.71;100286.31;10263376;28;20058;-68
2023/06/07 00:22:26;;;;;;;3.15;2.33;;;;;;;20.61;40.63;100287.81;10273545;28;21274;-69
2023/06/07 00:27:27;;;;;;;4.03;2.70;;;;;;;20.58;40.74;100282.78;10264259;28;20121;-69
2023/06/07 00:32:29;;;;;;;4.22;2.55;;;;;;;20.58;40.93;100287.34;10281927;28;20175;-69
2023/06/07 00:37:30;;;;;;;4.30;2.22;;;;;;;20.61;41.08;100287.81;10276417;28;20054;-69
2023/06/07 00:42:32;;;;;;;4.90;2.30;;;;;;;20.65;41.06;100285.56;10264454;28;20137;-69
2023/06/07 00:47:37;;;;;;;3.50;2.33;;;;;;;20.62;40.54;100278.66;10279688;28;20061;-69
2023/06/07 00:52:38;;;;;;;3.40;2.50;;;;;;;20.68;41.02;100281.69;10280634;28;20051;-69
2023/06/07 00:57:40;;;;;;;3.85;2.60;;;;;;;20.65;40.83;100272.03;10281586;28;20058;-69
2023/06/07 01:02:46;;;;;;;5.07;2.40;;;;;;;20.69;41.30;100273.38;10257753;28;20504;-69
2023/06/07 01:07:49;;;;;;;3.15;2.17;;;;;;;20.69;41.38;100267.97;10272067;28;20132;-70
2023/06/07 01:12:54;;;;;;;3.85;2.63;;;;;;;20.71;41.47;100259.66;10290059;28;20133;-68
2023/06/07 01:17:57;;;;;;;3.55;2.90;;;;;;;20.70;41.40;100258.81;10287240;28;20062;-70
2023/06/07 01:23:03;;;;;;;3.03;2.10;;;;;;;20.69;41.34;100259.84;10268204;28;20048;-69
2023/06/07 01:28:05;;;;;;;4.05;2.65;;;;;;;20.66;41.61;100262.94;10282798;28;20050;-71
2023/06/07 01:33:07;;;;;;;4.57;3.13;;;;;;;20.64;41.81;100256.84;10279186;28;20050;-68
2023/06/07 01:38:10;;;;;;;2.70;2.05;;;;;;;20.71;41.89;100265.91;10264152;28;20058;-69
2023/06/07 01:43:12;;;;;;;2.75;2.17;;;;;;;20.73;41.97;100257.59;10284409;28;20070;-70
2023/06/07 01:48:15;;;;;;;5.40;2.50;;;;;;;20.69;41.96;100257.16;10278168;28;20613;-69
2023/06/07 01:53:16;;;;;;;3.15;2.25;;;;;;;20.70;42.15;100253.41;10286895;28;20062;-70
2023/06/07 01:58:30;;;;;;;5.18;2.72;;;;;;;20.62;42.09;100235.38;10287176;28;20054;-69
2023/06/07 02:03:41;;;;;;;3.05;2.30;;;;;;;20.56;42.29;100229.91;10285263;28;20221;-70
2023/06/07 02:08:52;;;;;;;3.05;2.53;;;;;;;20.64;42.46;100241.47;10284119;28;20658;-69
2023/06/07 02:13:55;;;;;;;6.88;2.80;;;;;;;20.62;42.52;100234.56;10283340;28;20068;-69
2023/06/07 02:18:57;;;;;;;3.22;2.42;;;;;;;20.58;42.62;100233.25;10294136;28;20133;-71
2023/06/07 02:23:58;;;;;;;3.65;2.42;;;;;;;20.54;42.93;100227.41;10270548;28;20137;-68
2023/06/07 02:29:01;;;;;;;2.47;2.05;;;;;;;20.57;42.88;100231.59;10268716;28;20129;-68
2023/06/07 02:34:03;;;;;;;3.10;2.80;;;;;;;20.56;43.53;100227.22;10282341;28;20456;-68
2023/06/07 02:39:04;;;;;;;3.38;2.58;;;;;;;20.48;43.39;100218.19;10280716;28;20116;-68
2023/06/07 02:44:06;;;;;;;2.72;2.25;;;;;;;20.48;43.79;100223.59;10284287;28;20145;-69
2023/06/07 02:49:07;;;;;;;4.45;3.15;;;;;;;20.48;43.90;100217.34;10279045;28;20182;-68
2023/06/07 02:54:09;;;;;;;3.20;2.63;;;;;;;20.47;43.96;100221.06;10266065;28;20086;-70
2023/06/07 02:59:11;;;;;;;4.05;2.80;;;;;;;20.39;44.15;100205.78;10258461;28;20054;-69
2023/06/07 03:04:12;;;;;;;3.97;2.95;;;;;;;20.48;44.24;100220.06;10285993;28;20142;-69
2023/06/07 03:09:15;;;;;;;5.72;2.85;;;;;;;20.46;44.21;100232.91;10274545;28;20051;-70
2023/06/07 03:14:18;;;;;;;5.57;2.63;;;;;;;20.45;44.37;100234.78;10278364;28;20215;-70
2023/06/07 03:19:20;;;;;;;4.75;2.78;;;;;;;20.40;44.81;100222.84;10284914;28;20050;-69
2023/06/07 03:24:23;;;;;;;4.97;3.55;;;;;;;20.35;44.89;100239.63;10305735;28;20322;-69
2023/06/07 03:29:24;;;;;;;6.80;2.80;;;;;;;20.30;45.11;100239.38;10298338;28;20052;-71
2023/06/07 03:34:29;;;;;;;2.90;2.60;;;;;;;20.21;44.94;100233.22;10292785;28;20054;-69
2023/06/07 03:39:31;;;;;;;3.00;2.40;;;;;;;20.21;45.35;100256.72;10286181;28;20054;-68
2023/06/07 03:44:33;;;;;;;6.03;3.30;;;;;;;20.19;45.52;100253.34;10273758;28;20511;-69
2023/06/07 03:49:34;;;;;;;3.80;3.20;;;;;;;20.10;45.61;100248.03;10289073;28;20384;-68
2023/06/07 03:54:36;;;;;;;3.30;2.88;;;;;;;20.09;45.85;100246.34;10285114;28;20042;-68
2023/06/07 03:59:37;;;;;;;3.85;2.70;;;;;;;20.16;45.82;100245.59;10285401;28;20747;-69
2023/06/07 04:04:38;;;;;;;3.30;2.90;;;;;;;20.17;46.36;100247.28;10284788;28;20049;-67
2023/06/07 04:09:40;;;;;;;3.97;3.47;;;;;;;20.14;46.07;100253.91;10290302;28;20082;-71
2023/06/07 04:14:41;;;;;;;3.47;2.92;;;;;;;20.04;46.74;100259.59;10287769;28;20053;-68
2023/06/07 04:19:43;;;;;;;3.95;2.80;;;;;;;20.08;46.28;100260.88;10296919;28;20696;-69
2023/06/07 04:24:53;;;;;;;4.20;3.25;;;;;;;20.07;46.58;100261.06;10288448;28;20051;-70
2023/06/07 04:29:55;;;;;;;5.00;2.88;;;;;;;20.05;46.77;100242.34;10291152;28;20129;-70
2023/06/07 04:34:58;;;;;;;5.40;3.30;;;;;;;20.06;47.13;100252.13;10284415;28;20843;-69
2023/06/07 04:39:59;;;;;;;4.47;3.40;;;;;;;20.06;47.11;100252.13;10275618;28;20492;-70
2023/06/07 04:45:03;;;;;;;4.55;3.20;;;;;;;20.09;47.45;100251.75;10265332;28;20192;-70
2023/06/07 04:50:06;;;;;;;3.83;3.30;;;;;;;20.04;47.62;100253.34;10290070;28;20113;-70
2023/06/07 04:55:08;;;;;;;;;;;;;;;20.02;47.92;100255.41;10284214;28;20657;-69
2023/06/07 05:00:14;;;;;;;2.95;2.60;;;;;;;20.00;47.69;100266.38;10289552;28;21342;-71
2023/06/07 05:05:15;;;;;;;4.13;3.00;;;;;;;19.95;48.09;100256.13;10269973;28;20062;-68
2023/06/07 05:10:17;;;;;;;6.47;3.53;;;;;;;19.98;48.49;100263.00;10284543;28;20144;-69
2023/06/07 05:15:21;;;;;;;6.22;3.30;;;;;;;20.07;48.75;100275.44;10290221;28;20062;-69
2023/06/07 05:20:24;;;;;;;7.28;3.50;;;;;;;20.09;48.26;100257.16;10254813;28;21152;-70
2023/06/07 05:25:26;;;;;;;4.25;3.42;;;;;;;20.18;48.56;100260.63;10285490;28;20074;-72
2023/06/07 05:30:27;;;;;;;5.05;4.00;;;;;;;20.20;47.86;100268.53;10273272;28;20101;-69
2023/06/07 05:35:29;;;;;;;4.75;3.05;;;;;;;20.17;47.59;100269.75;10263064;28;20089;-71
2023/06/07 05:40:30;;;;;;;4.65;3.35;;;;;;;20.21;48.60;100262.13;10298529;28;20062;-72
2023/06/07 05:45:32;;;;;;;5.22;3.60;;;;;;;20.22;48.42;100266.47;10282703;28;20073;-70
2023/06/07 05:50:34;;;;;;;8.35;4.05;;;;;;;20.16;48.75;100265.34;10275672;28;20058;-70
2023/06/07 05:55:36;;;;;;;4.28;3.65;;;;;;;20.27;48.66;100273.00;10276035;28;20057;-71
2023/06/07 06:00:37;;;;;;;4.72;3.47;;;;;;;20.26;48.67;100265.09;10259408;28;20127;-70
2023/06/07 06:05:38;;;;;;;3.60;3.10;;;;;;;20.25;49.14;100249.88;10272117;28;20091;-70
2023/06/07 06:10:40;;;;;;;3.92;3.53;;;;;;;20.44;49.16;100273.63;10252523;28;20054;-71
2023/06/07 06:15:43;;;;;;;5.05;3.95;;;;;;;20.54;49.34;100269.84;10270948;28;20054;-71
2023/06/07 06:20:45;;;;;;;7.25;4.10;;;;;;;20.58;49.47;100268.41;10253606;28;20051;-72
2023/06/07 06:25:46;;;;;;;7.57;3.30;;;;;;;20.68;49.34;100282.50;10268463;28;20242;-72
2023/06/07 06:30:50;;;;;;;5.90;4.60;;;;;;;20.60;50.00;100275.31;10265265;28;20050;-70
2023/06/07 06:35:53;;;;;;;6.38;3.60;;;;;;;20.81;49.19;100276.44;10260221;28;20501;-73
2023/06/07 06:40:54;;;;;;;6.30;3.67;;;;;;;21.02;49.21;100268.34;10248877;28;20074;-72
2023/06/07 06:45:58;;;;;;;6.22;3.83;;;;;;;21.30;49.13;100280.28;10266621;28;20057;-72
2023/06/07 06:51:00;;;;;;;4.25;3.25;;;;;;;21.34;49.07;100287.81;10270743;28;20508;-70
2023/06/07 06:56:02;;;;;;;5.95;3.67;;;;;;;21.46;48.98;100285.44;10273796;28;21080;-69
2023/06/07 07:01:05;;;;;;;4.03;3.63;;;;;;;21.42;48.77;100294.13;10284701;28;20058;-70
2023/06/07 07:06:07;;;;;;;7.38;4.18;;;;;;;21.59;48.42;100295.59;10287450;28;20500;-71
2023/06/07 07:11:11;;;;;;;4.22;3.38;;;;;;;21.75;48.09;100291.75;10287907;28;20042;-69
2023/06/07 07:16:13;;;;;;;5.15;3.22;;;;;;;21.95;47.63;100291.06;10267780;28;20058;-70
2023/06/07 07:21:14;;;;;;;7.38;4.53;;;;;;;22.11;47.52;100298.88;10282839;28;20459;-72
2023/06/07 07:26:17;;;;;;;6.10;3.90;;;;;;;22.14;48.23;100284.09;10264545;28;20046;-70
2023/06/07 07:31:18;;;;;;;6.97;4.25;;;;;;;22.28;47.24;100282.31;10281037;28;20718;-70
2023/06/07 07:36:21;;;;;;;6.50;4.03;;;;;;;22.44;47.35;100287.44;10263789;28;20057;-69
2023/06/07 07:41:23;;;;;;;6.57;4.65;;;;;;;22.52;47.14;100292.72;10279816;28;20776;-69
2023/06/07 07:46:24;;;;;;;8.05;3.92;;;;;;;22.65;46.34;100291.91;10283476;28;20140;-70
2023/06/07 07:51:26;;;;;;;6.25;3.03;;;;;;;22.73;46.09;100296.34;10288200;28;20050;-71
2023/06/07 07:56:27;;;;;;;5.45;3.58;;;;;;;22.84;46.14;100290.31;10284896;28;20145;-71
2023/06/07 08:01:29;;;;;;;4.07;3.67;;;;;;;22.84;45.63;100281.34;10289085;28;20060;-70
2023/06/07 08:06:30;;;;;;;4.53;3.47;;;;;;;23.07;45.52;100287.25;10277570;28;20493;-68
2023/06/07 08:11:32;;;;;;;5.20;3.17;;;;;;;23.21;44.18;100277.31;10278832;28;20042;-71
2023/06/07 08:16:33;;;;;;;4.00;3.60;;;;;;;23.34;43.91;100286.53;10267474;28;20073;-70
2023/06/07 08:21:35;;;;;;;4.72;3.50;;;;;;;23.56;43.87;100287.19;10262319;28;21697;-71
2023/06/07 08:26:37;;;;;;;10.13;3.55;;;;;;;23.81;43.50;100282.78;10291711;28;20133;-69
2023/06/07 08:31:43;;;;;;;4.28;3.10;;;;;;;23.99;42.86;100290.31;10299829;28;20664;-72
2023/06/07 08:36:45;;;;;;;3.88;3.47;;;;;;;24.05;42.10;100276.91;10297625;28;20054;-69
2023/06/07 08:41:46;;;;;;;4.30;3.60;;;;;;;24.23;41.84;100279.81;10299731;28;20046;-71
2023/06/07 08:46:49;;;;;;;3.90;3.10;;;;;;;24.12;42.09;100269.59;10283649;28;20053;-69
2023/06/07 08:51:51;;;;;;;;;;;;;;;24.35;41.98;100271.84;10297809;28;20074;-70
2023/06/07 08:57:17;;;;;;;6.60;4.43;;;;;;;24.56;41.96;100280.75;10293196;28;20020;-70
2023/06/07 09:02:19;;;;;;;5.28;3.78;;;;;;;24.69;40.69;100270.69;10287046;28;20050;-71
2023/06/07 09:07:21;;;;;;;4.40;3.15;;;;;;;24.72;41.49;100265.88;10274711;28;24658;-69
2023/06/07 09:12:22;;;;;;;4.00;3.47;;;;;;;25.00;40.34;100274.50;10284070;28;20045;-70
2023/06/07 09:17:24;;;;;;;6.45;3.38;;;;;;;24.97;40.33;100280.41;10276409;28;20061;-71
2023/06/07 09:22:25;;;;;;;5.05;3.75;;;;;;;24.97;40.25;100282.28;10282535;28;20476;-71
2023/06/07 09:27:31;;;;;;;3.75;3.45;;;;;;;24.87;40.37;100277.31;10281157;28;20081;-69
2023/06/07 09:32:39;;;;;;;5.22;3.63;;;;;;;24.80;40.38;100265.59;10285392;28;20091;-70
2023/06/07 09:37:42;;;;;;;5.13;4.05;;;;;;;24.86;40.59;100278.34;10284383;28;20069;-69
2023/06/07 09:42:44;;;;;;;5.25;3.88;;;;;;;24.69;40.39;100273.41;10274237;28;20342;-69
2023/06/07 09:47:46;;;;;;;5.65;3.60;;;;;;;24.66;41.02;100279.28;10283519;28;20069;-71
2023/06/07 09:52:55;;;;;;;8.02;4.55;;;;;;;24.66;41.21;100281.16;10279400;28;20401;-70
2023/06/07 09:57:57;;;;;;;4.03;3.60;;;;;;;24.82;41.05;100288.03;10278727;28;20072;-70
2023/06/07 10:03:07;;;;;;;3.60;3.22;;;;;;;24.97;40.67;100274.13;10279778;28;20066;-69
2023/06/07 10:08:10;;;;;;;6.03;4.20;;;;;;;25.16;40.56;100278.63;10287308;28;20045;-70
2023/06/07 10:13:13;;;;;;;4.72;4.22;;;;;;;25.28;40.31;100281.47;10282566;28;20058;-71
2023/06/07 10:18:21;;;;;;;5.55;3.50;;;;;;;25.54;39.76;100280.47;10262714;28;20058;-70
2023/06/07 10:24:05;;;;;;;4.53;4.13;;;;;;;25.71;39.31;100269.84;10266095;28;21339;-70
2023/06/07 10:29:11;;;;;;;4.53;3.83;;;;;;;25.94;38.62;100265.63;10128383;28;20059;-70
2023/06/07 10:34:15;;;;;;;3.83;3.53;;;;;;;26.19;38.79;100254.72;10238581;28;20065;-68
2023/06/07 10:39:17;;;;;;;5.22;3.70;;;;;;;26.35;38.31;100247.84;10273608;28;20128;-69
2023/06/07 10:44:18;;;;;;;3.67;3.33;;;;;;;26.17;38.72;100250.56;10271486;28;20085;-69
2023/06/07 10:49:39;;;;;;;5.18;4.18;;;;;;;26.34;38.57;100239.88;10276946;28;20050;-72
2023/06/07 10:54:43;;;;;;;9.65;4.63;;;;;;;26.37;38.62;100244.88;10278087;28;20050;-71
2023/06/07 10:59:44;;;;;;;4.40;3.60;;;;;;;26.16;39.12;100248.88;10273794;28;20062;-69
2023/06/07 11:04:48;;;;;;;4.53;4.13;;;;;;;26.14;39.12;100245.53;10262821;28;20104;-69
2023/06/07 11:10:05;;;;;;;3.78;3.30;;;;;;;26.40;39.04;100242.50;10270498;28;20123;-69
2023/06/07 11:15:20;;;;;;;5.38;3.70;;;;;;;26.59;38.19;100237.88;10253053;28;20061;-70
2023/06/07 11:20:48;;;;;;;4.88;3.78;;;;;;;26.50;38.58;100238.41;10249861;28;20365;-67
2023/06/07 11:26:11;;;;;;;5.38;3.75;;;;;;;26.45;38.24;100234.50;10267835;28;20046;-68
2023/06/07 11:31:13;;;;;;;4.13;3.38;;;;;;;26.43;38.44;100236.59;10265039;28;20151;-67
2023/06/07 11:36:15;;;;;;;3.70;3.40;;;;;;;26.74;38.38;100229.31;10269685;28;20095;-69
2023/06/07 11:41:19;;;;;;;4.68;3.60;;;;;;;26.94;37.92;100223.56;10254905;28;20096;-70
2023/06/07 11:46:21;;;;;;;6.22;3.70;;;;;;;26.80;37.83;100217.47;10253198;28;20159;-69
2023/06/07 11:51:22;;;;;;;3.90;2.58;;;;;;;26.62;38.59;100222.94;10271243;28;20399;-69
2023/06/07 11:56:25;;;;;;;3.22;3.00;;;;;;;26.81;37.35;100210.94;10256594;28;20450;-68
2023/06/07 12:01:27;;;;;;;4.57;3.63;;;;;;;26.85;37.61;100202.28;10268163;28;20685;-68
2023/06/07 12:06:29;;;;;;;3.35;3.08;;;;;;;26.90;37.66;100205.13;10268965;28;20058;-67
2023/06/07 12:11:34;;;;;;;3.42;3.13;;;;;;;26.86;38.34;100193.84;10270445;28;20060;-69
2023/06/07 12:16:38;;;;;;;4.07;3.67;;;;;;;26.71;39.48;100190.69;10262729;28;21751;-68
2023/06/07 12:21:40;;;;;;;5.03;3.22;;;;;;;26.74;39.16;100196.56;10269638;28;21441;-72
2023/06/07 12:26:41;;;;;;;4.32;3.33;;;;;;;26.80;39.37;100186.59;10264690;28;20479;-67
2023/06/07 12:31:43;;;;;;;3.78;3.42;;;;;;;26.99;38.83;100188.19;10268380;28;20520;-70
2023/06/07 12:36:44;;;;;;;3.97;3.53;;;;;;;27.11;39.14;100169.09;10264224;28;20153;-68
2023/06/07 12:41:46;;;;;;;6.10;3.20;;;;;;;27.38;38.41;100167.84;10263364;28;20205;-68
2023/06/07 12:46:48;;;;;;;3.75;3.45;;;;;;;27.51;37.99;100162.97;10265360;28;20326;-68
2023/06/07 12:51:51;;;;;;;3.78;3.25;;;;;;;27.68;37.12;100156.78;10268049;28;25133;-70
2023/06/07 12:56:52;;;;;;;3.85;3.47;;;;;;;27.59;37.73;100158.22;10266285;28;20054;-69
2023/06/07 13:01:54;;;;;;;4.75;3.50;;;;;;;27.55;37.60;100152.41;10248690;28;20058;-69
2023/06/07 13:06:55;;;;;;;4.23;3.73;;;;;;;27.62;37.14;100146.81;10259553;28;20409;-69
2023/06/07 13:11:57;;;;;;;4.70;3.40;;;;;;;27.58;37.32;100138.25;10246744;28;20046;-69
2023/06/07 13:16:59;;;;;;;4.97;3.42;;;;;;;27.43;37.67;100138.75;10265720;28;20469;-68
2023/06/07 13:22:01;;;;;;;3.73;2.70;;;;;;;27.56;37.29;100132.19;10262435;28;20054;-68
2023/06/07 13:27:03;;;;;;;3.30;3.00;;;;;;;27.64;37.66;100117.34;10264376;28;20046;-68
2023/06/07 13:32:06;;;;;;;3.80;3.30;;;;;;;27.49;37.44;100126.84;10248302;28;20204;-68
2023/06/07 13:37:08;;;;;;;3.47;2.70;;;;;;;27.40;37.47;100125.56;10244665;28;20054;-68
2023/06/07 13:42:09;;;;;;;3.33;2.67;;;;;;;27.10;37.45;100104.59;10256358;28;20433;-67
2023/06/07 13:47:12;;;;;;;3.50;2.47;;;;;;;27.07;37.56;100113.28;10260671;28;22058;-70
2023/06/07 13:52:15;;;;;;;3.30;2.60;;;;;;;27.11;36.61;100098.09;10260510;28;20633;-70
2023/06/07 13:57:16;;;;;;;3.22;2.55;;;;;;;27.19;37.10;100104.25;10262324;28;20098;-70
2023/06/07 14:02:18;;;;;;;2.63;2.28;;;;;;;27.40;36.36;100098.22;10259839;28;20701;-71
2023/06/07 14:07:19;;;;;;;3.43;2.50;;;;;;;27.35;37.39;100095.38;10262626;28;20062;-68
2023/06/07 14:12:21;;;;;;;3.45;1.90;;;;;;;27.35;37.05;100089.91;10259544;28;20054;-69
2023/06/07 14:17:23;;;;;;;3.10;2.80;;;;;;;27.38;37.65;100089.41;10236387;28;20252;-69
2023/06/07 14:22:24;;;;;;;3.05;2.72;;;;;;;27.22;37.84;100071.84;10256227;28;20179;-69
2023/06/07 14:27:26;;;;;;;4.40;2.75;;;;;;;27.11;38.51;100069.91;10237217;28;20054;-70
2023/06/07 14:32:27;;;;;;;4.95;3.20;;;;;;;27.03;39.62;100079.31;10270269;28;20054;-69
2023/06/07 14:37:28;;;;;;;4.43;3.90;;;;;;;26.84;41.03;100064.91;10260484;28;20054;-69
2023/06/07 14:42:30;;;;;;;5.18;3.47;;;;;;;26.78;41.03;100080.34;10256335;28;20573;-69
2023/06/07 14:47:32;;;;;;;3.92;3.63;;;;;;;26.62;41.24;100087.28;10256185;28;20232;-71
2023/06/07 14:52:33;;;;;;;4.68;3.70;;;;;;;26.66;41.23;100079.44;10247269;28;20057;-67
2023/06/07 14:57:35;;;;;;;3.88;3.40;;;;;;;26.59;41.45;100073.28;10258821;28;20826;-67
2023/06/07 15:02:36;;;;;;;2.90;2.70;;;;;;;26.59;41.10;100079.56;10260005;28;20061;-67
2023/06/07 15:07:38;;;;;;;3.88;3.50;;;;;;;26.58;41.24;100082.53;10239429;28;20076;-69
2023/06/07 15:12:40;;;;;;;4.80;3.53;;;;;;;26.48;40.90;100082.25;10265906;28;20430;-68
2023/06/07 15:17:42;;;;;;;3.10;2.90;;;;;;;26.43;40.96;100070.13;10248493;28;20047;-68
2023/06/07 15:22:44;;;;;;;;;;;;;;;26.43;40.55;100070.13;10271378;28;20452;-69
2023/06/07 15:27:45;;;;;;;3.53;2.72;;;;;;;26.27;40.51;100065.34;10263699;28;20046;-68
2023/06/07 15:32:47;;;;;;;3.80;3.05;;;;;;;26.28;40.76;100061.56;10266879;28;20080;-68
2023/06/07 15:37:48;;;;;;;2.65;2.22;;;;;;;26.25;41.07;100053.84;10265249;28;20537;-67
2023/06/07 15:42:49;;;;;;;2.88;2.60;;;;;;;26.26;40.75;100058.25;10259302;28;20054;-68
2023/06/07 15:47:59;;;;;;;2.65;2.45;;;;;;;26.20;40.63;100053.72;10262744;28;20049;-67
2023/06/07 15:53:02;;;;;;;2.65;2.33;;;;;;;26.19;40.33;100047.41;10247097;28;20047;-70
2023/06/07 15:58:06;;;;;;;3.67;3.10;;;;;;;26.17;41.05;100048.72;10264285;28;20062;-68
2023/06/07 16:03:07;;;;;;;4.20;3.10;;;;;;;26.10;41.21;100049.63;10257265;28;20051;-67
2023/06/07 16:08:09;;;;;;;3.87;3.13;;;;;;;26.06;40.99;100048.44;10250860;28;20061;-68
2023/06/07 16:13:14;;;;;;;3.72;3.00;;;;;;;26.01;41.11;100037.38;10262319;28;20058;-67
2023/06/07 16:18:16;;;;;;;3.70;3.40;;;;;;;25.99;41.38;100042.25;10262190;28;20060;-66
2023/06/07 16:23:18;;;;;;;3.88;3.58;;;;;;;26.01;40.72;100042.84;10261059;28;20073;-67
2023/06/07 16:28:19;;;;;;;3.58;3.38;;;;;;;26.00;41.08;100033.00;10260382;28;20086;-69
2023/06/07 16:33:21;;;;;;;3.70;3.40;;;;;;;25.93;41.44;100030.31;10264425;28;20147;-67
2023/06/07 16:38:22;;;;;;;5.50;3.38;;;;;;;25.98;41.79;100032.34;10260205;28;20061;-66
2023/06/07 16:43:23;;;;;;;3.83;3.53;;;;;;;25.97;42.62;100027.94;10237446;28;21343;-71
2023/06/07 16:48:25;;;;;;;4.25;3.95;;;;;;;25.92;43.00;100022.38;10268245;28;20557;-69
2023/06/07 16:53:26;;;;;;;4.88;4.07;;;;;;;26.01;43.11;100014.75;10252585;28;20041;-72
2023/06/07 16:58:28;;;;;;;4.80;4.33;;;;;;;25.97;43.30;100010.78;10266942;28;20168;-71
2023/06/07 17:03:30;;;;;;;4.60;4.30;;;;;;;25.95;43.78;100011.00;10268177;28;20152;-73
2023/06/07 17:08:32;;;;;;;5.43;3.90;;;;;;;25.89;43.43;100014.66;10239339;28;20054;-72
2023/06/07 17:13:33;;;;;;;4.78;4.03;;;;;;;25.82;44.03;100009.31;10264036;28;20058;-70
2023/06/07 17:18:35;;;;;;;4.88;4.32;;;;;;;25.62;44.44;100009.53;10246531;28;20058;-69
2023/06/07 17:23:36;;;;;;;4.70;4.00;;;;;;;25.52;44.40;100020.16;10264110;28;20834;-70
2023/06/07 17:28:38;;;;;;;5.00;4.38;;;;;;;25.52;44.78;100037.34;10260835;28;20050;-71
2023/06/07 17:33:39;;;;;;;4.38;3.97;;;;;;;25.46;44.41;100026.50;10256778;28;20054;-69
2023/06/07 17:38:42;;;;;;;9.35;5.07;;;;;;;25.32;44.38;100029.38;10260036;28;20120;-69
2023/06/07 17:43:43;;;;;;;4.60;4.20;;;;;;;25.27;45.03;100031.94;10257705;28;20112;-68
2023/06/07 17:48:45;;;;;;;5.07;4.57;;;;;;;25.12;45.19;100026.84;10269031;28;20516;-67
2023/06/07 17:53:46;;;;;;;6.57;4.88;;;;;;;25.18;45.07;100030.56;10257897;28;20062;-69
2023/06/07 17:58:51;;;;;;;6.18;5.50;;;;;;;25.11;45.67;100022.44;10262158;28;20089;-68
2023/06/07 18:03:54;;;;;;;5.25;4.75;;;;;;;25.02;46.10;100021.91;10262499;28;20053;-69
2023/06/07 18:08:55;;;;;;;7.30;5.32;;;;;;;25.02;46.34;100016.44;10240749;28;20058;-69
2023/06/07 18:13:57;;;;;;;6.10;5.07;;;;;;;24.96;46.65;100028.25;10261931;28;20177;-69
2023/06/07 18:18:58;;;;;;;6.07;4.82;;;;;;;24.95;46.61;100042.09;10242300;28;20054;-68
2023/06/07 18:24:00;;;;;;;5.75;5.15;;;;;;;24.82;47.15;100032.97;10261221;28;20057;-68
2023/06/07 18:29:01;;;;;;;7.22;5.65;;;;;;;24.73;47.54;100036.22;10259035;28;20058;-69
2023/06/07 18:34:03;;;;;;;14.85;13.20;;;;;;;24.67;47.55;100036.03;10250252;28;20077;-68
2023/06/07 18:39:04;;;;;;;8.85;7.28;;;;;;;24.64;47.60;100036.47;10248315;28;20097;-68
2023/06/07 18:44:06;;;;;;;7.72;7.03;;;;;;;24.61;47.80;100033.38;10257388;28;20457;-69
2023/06/07 18:49:07;;;;;;;7.15;5.85;;;;;;;24.53;48.00;100018.97;10250676;28;20062;-69
2023/06/07 18:54:09;;;;;;;6.60;5.95;;;;;;;24.60;48.18;100031.72;10271574;28;20065;-69
2023/06/07 18:59:10;;;;;;;6.30;5.53;;;;;;;24.59;47.93;100036.31;10283990;28;20105;-70
2023/06/07 19:04:12;;;;;;;5.90;5.30;;;;;;;24.54;48.14;100030.66;10269950;28;20054;-71
2023/06/07 19:09:13;;;;;;;7.20;5.50;;;;;;;24.49;48.71;100038.66;10269404;28;20060;-70
2023/06/07 19:14:16;;;;;;;6.57;5.97;;;;;;;24.34;48.50;100042.53;10278468;28;20152;-69
2023/06/07 19:19:17;;;;;;;5.93;5.50;;;;;;;24.28;48.88;100050.75;10267051;28;20096;-68
2023/06/07 19:24:19;;;;;;;6.03;5.43;;;;;;;24.23;49.02;100045.97;10278339;28;20069;-69
2023/06/07 19:29:21;;;;;;;5.68;5.20;;;;;;;24.17;49.09;100046.84;10270512;28;20058;-70
2023/06/07 19:34:22;;;;;;;6.05;5.28;;;;;;;23.99;49.18;100051.09;10253743;28;20614;-68
2023/06/07 19:39:23;;;;;;;5.53;5.00;;;;;;;23.97;49.49;100052.34;10263189;28;20085;-68
2023/06/07 19:44:25;;;;;;;5.28;4.88;;;;;;;23.89;49.69;100055.34;10269181;28;20057;-69
2023/06/07 19:49:26;;;;;;;6.07;4.50;;;;;;;23.93;49.57;100053.84;10268818;28;20070;-69
2023/06/07 19:54:28;;;;;;;7.60;5.15;;;;;;;23.82;49.86;100042.59;10269753;28;20578;-68
2023/06/07 19:59:30;;;;;;;4.75;4.35;;;;;;;23.89;49.71;100063.50;10268946;28;20480;-70
2023/06/07 20:04:32;;;;;;;4.90;4.50;;;;;;;23.83;49.88;100062.44;10271228;28;20062;-69
2023/06/07 20:09:36;;;;;;;5.13;4.68;;;;;;;23.86;49.55;100062.03;10251214;28;20729;-68
2023/06/07 20:14:39;;;;;;;4.68;4.25;;;;;;;23.76;49.46;100086.91;10269671;28;20061;-71
2023/06/07 20:19:40;;;;;;;4.78;4.28;;;;;;;23.68;49.65;100097.19;10270897;28;20448;-69
2023/06/07 20:24:42;;;;;;;9.20;5.22;;;;;;;23.71;49.64;100113.88;10269124;28;20050;-68
2023/06/07 20:29:44;;;;;;;5.45;4.90;;;;;;;23.70;49.60;100111.38;10266754;28;20061;-69
2023/06/07 20:34:46;;;;;;;5.70;5.10;;;;;;;23.68;49.82;100105.34;10270313;28;20058;-68
2023/06/07 20:39:47;;;;;;;5.65;4.05;;;;;;;23.66;49.37;100097.41;10265156;28;20128;-69
2023/06/07 20:44:49;;;;;;;5.22;4.38;;;;;;;23.65;49.39;100093.84;10267496;28;20183;-70
2023/06/07 20:49:54;;;;;;;4.50;4.10;;;;;;;23.70;49.11;100086.94;10266483;28;20588;-70
2023/06/07 20:54:55;;;;;;;4.15;3.80;;;;;;;23.65;48.91;100077.53;10273077;28;20093;-69
2023/06/07 21:00:00;;;;;;;3.95;3.55;;;;;;;23.64;47.83;100084.03;10269995;28;20138;-67
2023/06/07 21:05:01;;;;;;;4.50;3.97;;;;;;;23.63;47.78;100098.66;10279752;28;20625;-68
2023/06/07 21:10:03;;;;;;;6.15;4.20;;;;;;;23.58;50.61;100103.06;10274009;28;20163;-70
2023/06/07 21:15:06;;;;;;;10.07;6.00;;;;;;;23.47;55.52;100097.22;10269800;28;20053;-67
2023/06/07 21:20:08;;;;;;;6.70;5.70;;;;;;;23.35;56.66;100096.22;10247874;28;20868;-70
2023/06/07 21:25:09;;;;;;;9.17;5.63;;;;;;;22.90;59.10;100085.97;10280250;28;20050;-69
2023/06/07 21:30:12;;;;;;;6.17;5.20;;;;;;;22.89;59.87;100100.56;10282570;28;20050;-68
2023/06/07 21:35:14;;;;;;;5.05;4.65;;;;;;;22.83;57.29;100096.00;10282992;28;20249;-69
2023/06/07 21:40:15;;;;;;;5.07;4.55;;;;;;;22.68;57.30;100098.06;10286420;28;20367;-69
2023/06/07 21:45:17;;;;;;;5.22;4.45;;;;;;;22.51;57.21;100108.47;10280977;28;20093;-70
2023/06/07 21:50:18;;;;;;;5.07;4.53;;;;;;;22.40;56.14;100107.22;10297180;28;20053;-68
2023/06/07 21:55:21;;;;;;;4.93;4.00;;;;;;;22.31;56.30;100109.28;10295837;28;20108;-69
2023/06/07 22:00:23;;;;;;;4.73;3.97;;;;;;;22.37;55.85;100108.44;10272635;28;20049;-68
2023/06/07 22:05:25;;;;;;;5.77;5.03;;;;;;;22.14;56.53;100110.63;10286856;28;20062;-70
2023/06/07 22:10:26;;;;;;;4.25;3.75;;;;;;;22.09;56.28;100105.81;10282331;28;20038;-68
2023/06/07 22:15:31;;;;;;;5.00;4.50;;;;;;;22.06;56.98;100096.22;10286894;28;20530;-68
2023/06/07 22:20:32;;;;;;;4.68;4.28;;;;;;;22.14;56.24;100097.91;10285014;28;20791;-68
2023/06/07 22:25:34;;;;;;;6.40;4.15;;;;;;;22.08;56.26;100098.72;10274945;28;20153;-68
2023/06/07 22:30:44;;;;;;;4.60;4.20;;;;;;;21.75;57.73;100094.00;10280335;28;20833;-68
2023/06/07 22:35:46;;;;;;;5.40;4.70;;;;;;;21.77;56.78;100081.09;10284198;28;20083;-69
2023/06/07 22:40:48;;;;;;;5.43;4.57;;;;;;;21.67;55.06;100076.03;10287953;28;20091;-69
2023/06/07 22:45:49;;;;;;;4.97;4.57;;;;;;;21.55;56.43;100083.06;10263022;28;21022;-67
2023/06/07 22:50:54;;;;;;;5.47;5.00;;;;;;;21.56;55.09;100075.75;10280332;28;20054;-68
2023/06/07 22:55:55;;;;;;;5.25;4.47;;;;;;;21.57;55.60;100069.31;10278142;28;20068;-68
2023/06/07 23:01:03;;;;;;;5.60;5.10;;;;;;;21.54;55.93;100076.81;10262713;28;20130;-68
2023/06/07 23:06:04;;;;;;;7.10;4.57;;;;;;;21.59;55.27;100075.34;10270528;28;20117;-68
2023/06/07 23:11:06;;;;;;;4.80;4.32;;;;;;;21.56;55.03;100082.03;10283929;28;20042;-68